createdAt,value
2017-12-29T00:01:33.547Z,3.43
2017-12-29T00:04:01.004Z,3.77
2017-12-29T00:06:29.190Z,4.03
2017-12-29T00:08:56.635Z,4.10
2017-12-29T00:11:24.152Z,4.00
2017-12-29T00:13:51.635Z,3.73
2017-12-29T00:16:19.142Z,3.77
2017-12-29T00:18:46.582Z,3.80
2017-12-29T00:21:14.096Z,3.83
2017-12-29T00:23:41.572Z,3.83
2017-12-29T00:26:09.010Z,4.10
2017-12-29T00:28:36.499Z,3.43
2017-12-29T00:31:03.964Z,4.03
2017-12-29T00:33:31.411Z,3.93
2017-12-29T00:35:58.881Z,3.87
2017-12-29T00:38:26.331Z,4.70
2017-12-29T00:40:53.790Z,4.40
2017-12-29T00:43:21.308Z,4.10
2017-12-29T00:45:48.776Z,4.13
2017-12-29T00:48:16.219Z,3.73
2017-12-29T00:50:43.715Z,3.80
2017-12-29T00:53:11.184Z,3.87
2017-12-29T00:55:38.643Z,3.53
2017-12-29T00:58:06.118Z,4.33
2017-12-29T01:00:33.717Z,4.43
2017-12-29T01:03:01.167Z,3.70
2017-12-29T01:05:28.708Z,4.53
2017-12-29T01:07:56.172Z,3.57
2017-12-29T01:10:23.634Z,4.07
2017-12-29T01:12:52.823Z,4.20
2017-12-29T01:15:20.268Z,3.80
2017-12-29T01:17:47.767Z,3.70
2017-12-29T01:20:16.712Z,4.33
2017-12-29T01:22:44.191Z,3.97
2017-12-29T01:25:11.648Z,3.90
2017-12-29T01:27:39.107Z,3.30
2017-12-29T01:30:06.564Z,3.63
2017-12-29T01:32:36.961Z,3.50
2017-12-29T01:35:04.474Z,4.23
2017-12-29T01:37:31.923Z,4.20
2017-12-29T01:39:59.388Z,3.40
2017-12-29T01:42:27.086Z,4.20
2017-12-29T01:44:54.565Z,4.20
2017-12-29T01:47:22.024Z,5.00
2017-12-29T01:49:49.479Z,4.10
2017-12-29T01:52:17.178Z,4.30
2017-12-29T01:54:44.647Z,4.00
2017-12-29T01:57:12.126Z,4.00
2017-12-29T01:59:39.571Z,4.10
2017-12-29T02:02:07.024Z,4.10
2017-12-29T02:04:34.484Z,3.70
2017-12-29T02:07:01.925Z,4.23
2017-12-29T02:09:29.387Z,3.83
2017-12-29T02:11:56.858Z,4.23
2017-12-29T02:14:24.328Z,3.97
2017-12-29T02:16:51.802Z,4.03
2017-12-29T02:19:19.281Z,4.27
2017-12-29T02:21:46.719Z,3.77
2017-12-29T02:24:14.167Z,3.60
2017-12-29T02:26:41.712Z,3.70
2017-12-29T02:29:09.168Z,3.50
2017-12-29T02:31:36.644Z,3.50
2017-12-29T02:34:04.116Z,3.40
2017-12-29T02:36:31.567Z,3.93
2017-12-29T02:38:59.029Z,3.30
2017-12-29T02:41:26.541Z,3.60
2017-12-29T02:43:54.000Z,3.30
2017-12-29T02:46:21.463Z,3.10
2017-12-29T02:48:51.952Z,3.23
2017-12-29T02:51:19.425Z,3.37
2017-12-29T02:53:46.871Z,3.40
2017-12-29T02:56:14.361Z,3.17
2017-12-29T02:58:42.887Z,2.70
2017-12-29T03:01:10.351Z,2.87
2017-12-29T03:03:38.011Z,2.30
2017-12-29T03:06:05.459Z,2.63
2017-12-29T03:08:34.453Z,2.43
2017-12-29T03:11:02.005Z,2.77
2017-12-29T03:13:29.455Z,2.87
2017-12-29T03:15:56.967Z,2.53
2017-12-29T03:18:24.455Z,2.30
2017-12-29T03:20:51.904Z,2.83
2017-12-29T03:23:19.353Z,2.40
2017-12-29T03:25:46.838Z,2.20
2017-12-29T03:28:14.390Z,3.03
2017-12-29T03:30:41.836Z,1.90
2017-12-29T03:33:09.389Z,1.93
2017-12-29T03:35:37.088Z,2.83
2017-12-29T03:38:04.557Z,2.50
2017-12-29T03:40:32.938Z,3.10
2017-12-29T03:43:00.404Z,2.57
2017-12-29T03:45:27.848Z,2.50
2017-12-29T03:47:55.324Z,2.40
2017-12-29T03:50:22.772Z,2.70
2017-12-29T03:52:50.218Z,2.27
2017-12-29T03:55:17.676Z,2.43
2017-12-29T03:57:45.119Z,3.10
2017-12-29T04:00:12.552Z,2.80
2017-12-29T04:02:40.058Z,2.53
2017-12-29T04:05:07.497Z,2.73
2017-12-29T04:07:34.974Z,2.63
2017-12-29T04:10:02.438Z,2.50
2017-12-29T04:12:30.254Z,2.57
2017-12-29T04:14:57.704Z,3.00
2017-12-29T04:17:25.219Z,2.97
2017-12-29T04:19:52.690Z,2.87
2017-12-29T04:22:20.141Z,2.63
2017-12-29T04:24:47.610Z,2.53
2017-12-29T04:27:15.471Z,2.93
2017-12-29T04:29:42.934Z,3.33
2017-12-29T04:32:10.425Z,2.87
2017-12-29T04:34:37.874Z,3.30
2017-12-29T04:37:05.343Z,2.93
2017-12-29T04:39:32.842Z,2.67
2017-12-29T04:42:00.279Z,3.27
2017-12-29T04:44:27.735Z,3.47
2017-12-29T04:46:55.224Z,3.07
2017-12-29T04:49:22.672Z,3.57
2017-12-29T04:51:50.141Z,3.20
2017-12-29T04:54:17.632Z,3.00
2017-12-29T04:56:45.075Z,3.50
2017-12-29T04:59:12.527Z,2.97
2017-12-29T05:01:40.062Z,3.30
2017-12-29T05:04:07.519Z,3.43
2017-12-29T05:06:34.971Z,4.15
2017-12-29T05:09:02.443Z,3.33
2017-12-29T05:11:29.931Z,3.70
2017-12-29T05:13:57.403Z,3.53
2017-12-29T05:16:24.894Z,3.53
2017-12-29T05:18:52.331Z,3.07
2017-12-29T05:21:19.801Z,3.30
2017-12-29T05:23:47.260Z,3.07
2017-12-29T05:26:14.955Z,3.80
2017-12-29T05:28:42.407Z,3.03
2017-12-29T05:31:09.849Z,3.13
2017-12-29T05:33:37.319Z,3.20
2017-12-29T05:36:04.774Z,3.03
2017-12-29T05:38:32.746Z,3.30
2017-12-29T05:41:00.267Z,2.80
2017-12-29T05:43:27.735Z,3.10
2017-12-29T05:45:55.211Z,2.43
2017-12-29T05:48:22.650Z,3.73
2017-12-29T05:50:50.098Z,3.60
2017-12-29T05:53:17.566Z,4.20
2017-12-29T05:55:45.037Z,3.50
2017-12-29T05:58:12.480Z,3.73
2017-12-29T06:00:39.978Z,4.70
2017-12-29T06:03:07.417Z,4.93
2017-12-29T06:05:34.853Z,5.70
2017-12-29T06:08:02.376Z,4.67
2017-12-29T06:10:29.836Z,5.57
2017-12-29T06:12:57.320Z,5.87
2017-12-29T06:15:24.774Z,5.20
2017-12-29T06:17:52.256Z,4.65
2017-12-29T06:20:19.737Z,5.18
2017-12-29T06:22:47.199Z,4.57
2017-12-29T06:25:14.668Z,4.95
2017-12-29T06:27:42.114Z,4.90
2017-12-29T06:30:09.632Z,4.15
2017-12-29T06:32:37.109Z,4.60
2017-12-29T06:35:04.554Z,4.40
2017-12-29T06:37:32.010Z,4.93
2017-12-29T06:39:59.472Z,4.40
2017-12-29T06:42:26.977Z,4.65
2017-12-29T06:44:54.487Z,4.62
2017-12-29T06:47:21.944Z,4.10
2017-12-29T06:49:49.400Z,3.65
2017-12-29T06:52:17.085Z,4.55
2017-12-29T06:54:44.566Z,4.57
2017-12-29T06:57:12.038Z,3.80
2017-12-29T06:59:39.552Z,3.47
2017-12-29T07:02:07.000Z,3.40
2017-12-29T07:04:35.588Z,4.10
2017-12-29T07:07:03.108Z,3.47
2017-12-29T07:09:30.556Z,3.80
2017-12-29T07:11:58.021Z,3.47
2017-12-29T07:14:25.539Z,3.20
2017-12-29T07:16:53.007Z,3.60
2017-12-29T07:19:20.487Z,3.80
2017-12-29T07:21:47.955Z,3.40
2017-12-29T07:24:15.438Z,3.65
2017-12-29T07:26:42.890Z,3.10
2017-12-29T07:29:10.471Z,3.75
2017-12-29T07:31:37.935Z,2.87
2017-12-29T07:34:05.434Z,3.25
2017-12-29T07:36:32.919Z,4.05
2017-12-29T07:39:00.450Z,3.60
2017-12-29T07:41:27.909Z,3.65
2017-12-29T07:43:55.392Z,3.97
2017-12-29T07:46:22.840Z,3.60
2017-12-29T07:48:50.297Z,3.80
2017-12-29T07:51:17.896Z,4.17
2017-12-29T07:53:45.354Z,3.60
2017-12-29T07:56:12.808Z,4.50
2017-12-29T07:58:40.266Z,3.70
2017-12-29T08:01:07.715Z,3.50
2017-12-29T08:03:35.150Z,4.60
2017-12-29T08:06:02.679Z,3.63
2017-12-29T08:08:30.138Z,3.27
2017-12-29T08:10:57.600Z,3.90
2017-12-29T08:13:25.103Z,4.30
2017-12-29T08:15:52.573Z,3.60
2017-12-29T08:18:20.039Z,4.30
2017-12-29T08:20:47.518Z,4.10
2017-12-29T08:23:14.975Z,4.63
2017-12-29T08:25:42.419Z,4.80
2017-12-29T08:28:14.170Z,4.80
2017-12-29T08:30:37.375Z,4.03
2017-12-29T08:33:04.873Z,4.50
2017-12-29T08:35:32.340Z,4.83
2017-12-29T08:38:00.284Z,4.23
2017-12-29T08:40:27.776Z,4.87
2017-12-29T08:42:55.606Z,4.57
2017-12-29T08:45:23.093Z,4.47
2017-12-29T08:47:50.538Z,4.10
2017-12-29T08:50:18.031Z,3.93
2017-12-29T08:52:45.520Z,5.10
2017-12-29T08:55:12.994Z,3.40
2017-12-29T08:57:40.522Z,4.20
2017-12-29T09:00:07.982Z,4.70
2017-12-29T09:02:35.427Z,4.20
2017-12-29T09:05:02.927Z,4.37
2017-12-29T09:07:30.389Z,4.77
2017-12-29T09:09:57.899Z,3.90
2017-12-29T09:12:25.509Z,4.00
2017-12-29T09:14:53.019Z,4.60
2017-12-29T09:17:20.542Z,4.20
2017-12-29T09:19:48.075Z,5.07
2017-12-29T09:22:15.843Z,4.55
2017-12-29T09:24:43.291Z,4.67
2017-12-29T09:27:10.825Z,4.60
2017-12-29T09:29:38.293Z,4.50
2017-12-29T09:32:05.775Z,3.87
2017-12-29T09:34:33.743Z,4.50
2017-12-29T09:37:01.256Z,4.37
2017-12-29T09:39:28.762Z,3.73
2017-12-29T09:41:56.299Z,4.37
2017-12-29T09:44:23.761Z,4.50
2017-12-29T09:46:51.195Z,3.73
2017-12-29T09:49:18.781Z,3.87
2017-12-29T09:51:46.239Z,3.90
2017-12-29T09:54:13.684Z,4.00
2017-12-29T09:56:41.144Z,3.57
2017-12-29T09:59:08.595Z,3.90
2017-12-29T10:01:36.036Z,3.53
2017-12-29T10:04:03.527Z,3.93
2017-12-29T10:06:31.339Z,3.27
2017-12-29T10:08:58.805Z,6.67
2017-12-29T10:11:26.290Z,3.00
2017-12-29T10:13:53.733Z,2.90
2017-12-29T10:16:21.197Z,2.77
2017-12-29T10:18:48.887Z,3.27
2017-12-29T10:21:16.427Z,3.47
2017-12-29T10:23:43.900Z,3.20
2017-12-29T10:26:11.411Z,2.90
2017-12-29T10:28:38.886Z,3.20
2017-12-29T10:31:06.384Z,3.13
2017-12-29T10:33:33.855Z,3.20
2017-12-29T10:36:01.723Z,2.90
2017-12-29T10:38:29.195Z,3.43
2017-12-29T10:40:56.892Z,3.40
2017-12-29T10:43:24.410Z,3.17
2017-12-29T10:45:51.869Z,3.00
2017-12-29T10:48:19.361Z,2.80
2017-12-29T10:50:46.864Z,2.60
2017-12-29T10:53:14.306Z,3.10
2017-12-29T10:55:41.779Z,3.60
2017-12-29T10:58:09.216Z,3.40
2017-12-29T11:00:36.723Z,3.27
2017-12-29T11:03:04.208Z,3.47
2017-12-29T11:05:31.680Z,3.20
2017-12-29T11:07:59.149Z,3.43
2017-12-29T11:10:26.639Z,3.43
2017-12-29T11:12:54.080Z,3.60
2017-12-29T11:15:21.539Z,3.53
2017-12-29T11:17:49.021Z,3.07
2017-12-29T11:20:16.479Z,3.67
2017-12-29T11:22:43.923Z,3.30
2017-12-29T11:25:11.399Z,3.47
2017-12-29T11:27:38.870Z,3.50
2017-12-29T11:30:06.326Z,3.30
2017-12-29T11:32:33.984Z,3.33
2017-12-29T11:35:07.237Z,3.43
2017-12-29T11:37:34.713Z,3.10
2017-12-29T11:40:02.191Z,3.80
2017-12-29T11:42:29.801Z,2.73
2017-12-29T11:44:57.310Z,3.13
2017-12-29T11:47:24.779Z,3.03
2017-12-29T11:49:52.252Z,2.57
2017-12-29T11:52:19.759Z,2.90
2017-12-29T11:54:47.759Z,3.30
2017-12-29T11:57:15.320Z,3.33
2017-12-29T11:59:42.818Z,2.77
2017-12-29T12:02:11.330Z,2.77
2017-12-29T12:04:38.807Z,2.93
2017-12-29T12:07:06.309Z,2.80
2017-12-29T12:09:33.823Z,2.13
2017-12-29T12:12:01.429Z,2.40
2017-12-29T12:14:29.843Z,2.23
2017-12-29T12:16:57.324Z,3.00
2017-12-29T12:19:24.811Z,3.17
2017-12-29T12:21:52.958Z,3.10
2017-12-29T12:24:20.460Z,2.53
2017-12-29T12:26:47.927Z,3.10
2017-12-29T12:29:15.392Z,2.47
2017-12-29T12:31:42.873Z,2.93
2017-12-29T12:34:10.359Z,3.20
2017-12-29T12:36:37.847Z,2.20
2017-12-29T12:39:05.355Z,3.50
2017-12-29T12:41:32.847Z,2.73
2017-12-29T12:44:00.342Z,3.50
2017-12-29T12:46:27.819Z,3.10
2017-12-29T12:48:55.312Z,2.43
2017-12-29T12:51:22.082Z,3.00
2017-12-29T12:53:49.546Z,3.57
2017-12-29T12:56:17.335Z,2.87
2017-12-29T12:58:44.811Z,2.70
2017-12-29T13:01:12.273Z,2.70
2017-12-29T13:03:39.796Z,3.17
2017-12-29T13:06:07.264Z,3.17
2017-12-29T13:08:34.842Z,2.73
2017-12-29T13:11:02.435Z,3.27
2017-12-29T13:13:29.914Z,2.63
2017-12-29T13:15:57.379Z,2.67
2017-12-29T13:18:24.839Z,2.67
2017-12-29T13:20:52.356Z,2.70
2017-12-29T13:23:21.255Z,2.77
2017-12-29T13:25:48.760Z,2.63
2017-12-29T13:28:16.378Z,3.17
2017-12-29T13:30:43.846Z,3.70
2017-12-29T13:33:11.316Z,2.53
2017-12-29T13:35:38.817Z,3.40
2017-12-29T13:38:06.282Z,3.63
2017-12-29T13:40:33.763Z,3.43
2017-12-29T13:43:01.250Z,2.47
2017-12-29T13:45:28.736Z,2.57
2017-12-29T13:47:56.233Z,3.47
2017-12-29T13:50:23.694Z,2.43
2017-12-29T13:52:51.203Z,1.87
2017-12-29T13:55:18.685Z,2.50
2017-12-29T13:57:46.186Z,3.00
2017-12-29T14:00:13.628Z,2.37
2017-12-29T14:02:41.117Z,2.03
2017-12-29T14:05:08.584Z,2.07
2017-12-29T14:07:36.051Z,2.73
2017-12-29T14:10:03.512Z,2.37
2017-12-29T14:12:30.988Z,2.30
2017-12-29T14:14:58.465Z,2.60
2017-12-29T14:17:25.959Z,2.23
2017-12-29T14:19:53.434Z,2.67
2017-12-29T14:22:20.903Z,2.73
2017-12-29T14:24:48.831Z,2.23
2017-12-29T14:27:16.445Z,3.00
2017-12-29T14:29:43.923Z,2.40
2017-12-29T14:32:11.391Z,2.73
2017-12-29T14:34:39.037Z,2.83
2017-12-29T14:37:06.517Z,2.30
2017-12-29T14:39:34.002Z,2.73
2017-12-29T14:42:01.471Z,2.70
2017-12-29T14:44:28.936Z,3.07
2017-12-29T14:46:56.431Z,2.97
2017-12-29T14:49:23.889Z,3.03
2017-12-29T14:51:51.373Z,2.83
2017-12-29T14:54:18.852Z,2.20
2017-12-29T14:56:46.333Z,2.83
2017-12-29T14:59:13.844Z,2.47
2017-12-29T15:01:41.318Z,3.00
2017-12-29T15:04:08.805Z,2.70
2017-12-29T15:06:36.294Z,2.33
2017-12-29T15:09:03.954Z,2.50
2017-12-29T15:11:31.489Z,2.57
2017-12-29T15:13:58.955Z,2.63
2017-12-29T15:16:26.422Z,3.73
2017-12-29T15:18:55.124Z,2.80
2017-12-29T15:21:22.666Z,2.70
2017-12-29T15:23:50.136Z,3.13
2017-12-29T15:26:17.748Z,2.90
2017-12-29T15:28:45.247Z,2.87
2017-12-29T15:31:12.718Z,2.70
2017-12-29T15:33:40.195Z,2.60
2017-12-29T15:36:07.696Z,2.53
2017-12-29T15:38:35.266Z,2.63
2017-12-29T15:41:02.825Z,3.37
2017-12-29T15:43:30.299Z,2.83
2017-12-29T15:45:57.766Z,2.30
2017-12-29T15:48:25.251Z,3.03
2017-12-29T15:50:53.502Z,3.35
2017-12-29T15:53:20.995Z,3.50
2017-12-29T15:55:48.479Z,3.95
2017-12-29T15:58:16.053Z,3.78
2017-12-29T16:00:44.510Z,3.65
2017-12-29T16:03:11.959Z,4.30
2017-12-29T16:05:39.467Z,3.45
2017-12-29T16:08:06.938Z,3.23
2017-12-29T16:10:34.497Z,2.87
2017-12-29T16:13:01.982Z,3.10
2017-12-29T16:15:30.074Z,4.00
2017-12-29T16:17:57.551Z,4.53
2017-12-29T16:20:25.038Z,3.92
2017-12-29T16:22:52.530Z,3.53
2017-12-29T16:25:20.017Z,3.40
2017-12-29T16:27:47.524Z,3.47
2017-12-29T16:30:15.007Z,3.65
2017-12-29T16:32:42.498Z,3.40
2017-12-29T16:35:10.022Z,3.80
2017-12-29T16:37:37.581Z,4.10
2017-12-29T16:40:05.111Z,4.27
2017-12-29T16:42:32.777Z,3.00
2017-12-29T16:45:00.319Z,4.60
2017-12-29T16:47:27.799Z,3.72
2017-12-29T16:49:55.312Z,4.47
2017-12-29T16:52:22.830Z,3.80
2017-12-29T16:54:50.606Z,4.68
2017-12-29T16:57:18.160Z,4.10
2017-12-29T16:59:45.670Z,4.25
2017-12-29T17:02:13.299Z,4.43
2017-12-29T17:04:40.817Z,3.95
2017-12-29T17:07:08.319Z,3.80
2017-12-29T17:09:35.812Z,4.35
2017-12-29T17:12:03.291Z,4.18
2017-12-29T17:14:30.845Z,4.72
2017-12-29T17:16:59.207Z,3.20
2017-12-29T17:19:26.741Z,3.72
2017-12-29T17:21:54.253Z,3.58
2017-12-29T17:24:21.732Z,4.60
2017-12-29T17:26:49.216Z,4.50
2017-12-29T17:29:16.709Z,4.55
2017-12-29T17:31:44.194Z,4.22
2017-12-29T17:34:11.694Z,4.37
2017-12-29T17:36:40.030Z,4.30
2017-12-29T17:39:08.472Z,4.78
2017-12-29T17:41:35.978Z,4.75
2017-12-29T17:44:03.462Z,5.47
2017-12-29T17:46:30.956Z,5.00
2017-12-29T17:48:58.739Z,5.07
2017-12-29T17:53:59.898Z,6.82
2017-12-29T17:56:27.380Z,5.22
2017-12-29T17:58:54.853Z,5.75
2017-12-29T18:01:22.376Z,6.25
2017-12-29T18:03:49.831Z,5.55
2017-12-29T18:06:17.278Z,6.20
2017-12-29T18:08:45.085Z,5.68
2017-12-29T18:11:12.574Z,5.20
2017-12-29T18:13:40.019Z,5.18
2017-12-29T18:16:07.524Z,5.68
2017-12-29T18:18:35.209Z,4.90
2017-12-29T18:21:02.674Z,6.05
2017-12-29T18:23:30.827Z,4.80
2017-12-29T18:25:58.394Z,5.30
2017-12-29T18:28:25.930Z,4.68
2017-12-29T18:30:53.419Z,4.30
2017-12-29T18:33:20.867Z,5.32
2017-12-29T18:35:48.352Z,5.43
2017-12-29T18:38:15.880Z,5.30
2017-12-29T18:40:43.563Z,4.90
2017-12-29T18:43:11.059Z,4.72
2017-12-29T18:45:38.759Z,5.10
2017-12-29T18:48:06.219Z,7.07
2017-12-29T18:50:33.939Z,5.12
2017-12-29T18:53:01.535Z,4.32
2017-12-29T18:55:28.994Z,5.40
2017-12-29T18:57:56.528Z,5.45
2017-12-29T19:00:24.747Z,5.85
2017-12-29T19:02:52.271Z,5.03
2017-12-29T19:05:19.751Z,5.60
2017-12-29T19:07:47.322Z,6.62
2017-12-29T19:10:14.867Z,6.00
2017-12-29T19:12:42.344Z,5.90
2017-12-29T19:15:09.948Z,5.25
2017-12-29T19:17:37.472Z,4.50
2017-12-29T19:20:05.052Z,5.15
2017-12-29T19:22:32.715Z,3.90
2017-12-29T19:25:00.291Z,4.10
2017-12-29T19:27:28.733Z,3.70
2017-12-29T19:29:57.780Z,5.12
2017-12-29T19:32:25.388Z,4.75
2017-12-29T19:34:53.191Z,3.30
2017-12-29T19:37:20.910Z,3.67
2017-12-29T19:39:48.578Z,4.20
2017-12-29T19:42:16.376Z,3.80
2017-12-29T19:44:44.160Z,4.05
2017-12-29T19:47:11.938Z,3.50
2017-12-29T19:49:39.680Z,4.47
2017-12-29T19:52:07.493Z,3.53
2017-12-29T19:54:35.328Z,4.12
2017-12-29T19:57:03.156Z,3.17
2017-12-29T19:59:30.980Z,3.78
2017-12-29T20:01:58.867Z,4.55
2017-12-29T20:04:26.813Z,3.53
2017-12-29T20:06:54.672Z,4.28
2017-12-29T20:09:22.527Z,3.60
2017-12-29T20:11:50.371Z,3.85
2017-12-29T20:14:18.595Z,4.00
2017-12-29T20:16:46.425Z,4.10
2017-12-29T20:19:14.261Z,5.00
2017-12-29T20:21:42.102Z,11.10
2017-12-29T20:24:09.992Z,9.07
2017-12-29T20:26:37.847Z,5.40
2017-12-29T20:29:05.712Z,5.03
2017-12-29T20:31:34.500Z,4.65
2017-12-29T20:34:02.353Z,5.20
2017-12-29T20:36:30.287Z,6.15
2017-12-29T20:38:59.695Z,6.18
2017-12-29T20:41:27.626Z,6.40
2017-12-29T20:43:56.753Z,6.12
2017-12-29T20:46:25.801Z,5.80
2017-12-29T20:48:56.162Z,5.87
2017-12-29T20:51:24.463Z,6.30
2017-12-29T20:53:52.381Z,6.00
2017-12-29T20:56:20.336Z,6.15
2017-12-29T20:58:48.256Z,6.50
2017-12-29T21:01:16.204Z,6.40
2017-12-29T21:03:44.125Z,5.55
2017-12-29T21:06:12.027Z,5.55
2017-12-29T21:08:39.853Z,4.40
2017-12-29T21:11:08.755Z,4.53
2017-12-29T21:13:36.674Z,4.62
2017-12-29T21:16:04.552Z,4.43
2017-12-29T21:18:33.717Z,3.97
2017-12-29T21:21:01.511Z,3.87
2017-12-29T21:23:30.498Z,4.95
2017-12-29T21:25:58.311Z,4.25
2017-12-29T21:28:26.207Z,4.07
2017-12-29T21:30:54.061Z,3.22
2017-12-29T21:33:21.913Z,3.58
2017-12-29T21:35:49.785Z,3.58
2017-12-29T21:38:17.631Z,3.78
2017-12-29T21:40:46.185Z,3.42
2017-12-29T21:43:13.735Z,3.67
2017-12-29T21:48:17.266Z,2.83
2017-12-29T21:50:44.933Z,3.70
2017-12-29T21:53:12.474Z,3.05
2017-12-29T21:55:40.164Z,3.30
2017-12-29T21:58:07.652Z,3.60
2017-12-29T22:00:35.427Z,3.10
2017-12-29T22:03:02.936Z,2.75
2017-12-29T22:05:31.007Z,2.72
2017-12-29T22:07:58.495Z,3.53
2017-12-29T22:10:25.967Z,2.87
2017-12-29T22:12:53.419Z,3.40
2017-12-29T22:15:20.933Z,3.05
2017-12-29T22:17:49.162Z,3.08
2017-12-29T22:20:16.606Z,2.83
2017-12-29T22:22:44.305Z,2.67
2017-12-29T22:25:11.827Z,2.75
2017-12-29T22:27:39.394Z,3.70
2017-12-29T22:30:06.952Z,3.67
2017-12-29T22:32:34.409Z,5.62
2017-12-29T22:35:01.912Z,4.85
2017-12-29T22:37:29.394Z,5.55
2017-12-29T22:39:57.775Z,6.12
2017-12-29T22:42:25.325Z,4.85
2017-12-29T22:44:52.931Z,4.22
2017-12-29T22:47:20.384Z,4.57
2017-12-29T22:49:50.182Z,4.93
2017-12-29T22:52:17.713Z,4.90
2017-12-29T22:54:45.180Z,5.30
2017-12-29T22:57:12.635Z,4.37
2017-12-29T22:59:40.120Z,5.50
2017-12-29T23:02:07.627Z,5.55
2017-12-29T23:04:35.112Z,5.20
2017-12-29T23:07:02.572Z,4.82
2017-12-29T23:09:31.294Z,5.35
2017-12-29T23:11:58.751Z,5.10
2017-12-29T23:14:26.220Z,5.40
2017-12-29T23:16:53.684Z,4.28
2017-12-29T23:19:21.337Z,4.87
2017-12-29T23:21:48.808Z,5.80
2017-12-29T23:24:16.278Z,4.80
2017-12-29T23:26:43.735Z,5.28
2017-12-29T23:29:11.205Z,5.22
2017-12-29T23:31:38.669Z,5.05
2017-12-29T23:34:06.126Z,5.72
2017-12-29T23:36:33.613Z,5.47
2017-12-29T23:39:01.063Z,5.90
2017-12-29T23:41:28.512Z,5.32
2017-12-29T23:43:55.977Z,5.75
2017-12-29T23:46:23.419Z,5.82
2017-12-29T23:48:50.878Z,5.75
2017-12-29T23:51:18.427Z,5.65
2017-12-29T23:53:45.902Z,6.82
2017-12-29T23:56:13.361Z,6.35
2017-12-29T23:58:40.839Z,5.87
